Terminal Aerodrome Forecast
Issued by NWS Central Illinois

Home | Current Version | Previous Version | Text Only | Print | Product List | Glossary On
Versions: 1 2 3 4 5 6 7 8 9 10 11 12 13 14 15 16 17
000
FTUS43 KILX 031700
TAFSPI
TAF
KSPI 031734Z 0318/0418 20014G22KT 1 1/2SM BR VCSH OVC004
     FM032000 23014G20KT 3SM BR BKN008 OVC015
     FM032100 25013G21KT 5SM BR OVC015
     FM040200 29015KT P6SM OVC020
     FM040600 32012KT P6SM SCT020=

USA.gov is the U.S. government's official web portal to all federal, state and local government web resources and services.